Time;durP1;ratioP1;P1;durP2;ratioP2;P2;SDS_P1;SDS_P2;PMS_P1;PMS_P2;Temp;Humidity;BMP_temperature;BMP_pressure;BME280_temperature;BME280_humidity;BME280_pressure;Samples;Min_cycle;Max_cycle;Signal;HPM_P1;HPM_P2
2022/11/23 00:01:37;;;;;;;19.50;11.07;;;3.30;99.90;;;;;;5075059;28;20017;-80
2022/11/23 00:04:05;;;;;;;14.70;10.23;;;3.30;99.90;;;;;;5075070;28;20470;-80
2022/11/23 00:06:32;;;;;;;15.27;9.65;;;3.40;99.90;;;;;;5074834;28;20047;-80
2022/11/23 00:08:58;;;;;;;16.25;10.88;;;3.40;99.90;;;;;;5075454;28;20052;-80
2022/11/23 00:11:25;;;;;;;18.38;11.63;;;3.40;99.90;;;;;;5074981;28;20103;-80
2022/11/23 00:13:51;;;;;;;17.13;11.35;;;3.20;99.90;;;;;;5074431;28;20070;-80
2022/11/23 00:16:25;;;;;;;14.80;10.80;;;3.00;99.90;;;;;;5073938;28;20431;-80
2022/11/23 00:18:53;;;;;;;18.80;12.05;;;3.00;99.90;;;;;;5058336;28;20151;-80
2022/11/23 00:21:20;;;;;;;17.48;12.32;;;3.00;99.90;;;;;;5054736;28;20021;-80
2022/11/23 00:23:46;;;;;;;19.48;14.00;;;3.00;99.90;;;;;;5054666;28;20083;-80
2022/11/23 00:26:12;;;;;;;23.23;14.35;;;2.90;99.90;;;;;;5054219;28;20033;-80
2022/11/23 00:28:39;;;;;;;20.83;13.23;;;2.80;99.90;;;;;;5054647;28;20056;-80
2022/11/23 00:31:06;;;;;;;18.67;12.68;;;2.80;99.90;;;;;;5055261;28;20449;-79
2022/11/23 00:33:32;;;;;;;17.08;11.50;;;2.90;99.90;;;;;;5068190;28;20044;-80
2022/11/23 00:36:02;;;;;;;19.95;13.57;;;2.90;99.90;;;;;;5073385;28;20123;-80
2022/11/23 00:38:28;;;;;;;17.67;13.18;;;3.00;99.90;;;;;;5074394;28;20543;-80
2022/11/23 00:41:01;;;;;;;17.70;11.32;;;3.10;99.90;;;;;;5074125;28;20103;-79
2022/11/23 00:43:28;;;;;;;17.75;11.90;;;3.20;99.90;;;;;;5074293;28;20504;-80
2022/11/23 00:46:20;;;;;;;16.13;10.90;;;3.40;99.90;;;;;;5074642;28;20051;-80
2022/11/23 00:48:48;;;;;;;16.05;10.43;;;3.50;99.90;;;;;;5074138;28;20107;-80
2022/11/23 00:51:19;;;;;;;16.05;9.43;;;3.60;99.90;;;;;;5074649;28;20027;-80
2022/11/23 00:53:45;;;;;;;12.77;8.50;;;3.70;99.90;;;;;;5074150;28;20033;-80
2022/11/23 00:56:11;;;;;;;11.00;8.27;;;3.80;99.90;;;;;;5073737;28;20040;-80
2022/11/23 00:58:37;;;;;;;20.75;8.88;;;3.80;99.90;;;;;;5073936;28;20070;-80
2022/11/23 01:01:11;;;;;;;13.45;8.82;;;3.80;99.90;;;;;;5073976;28;20438;-80
2022/11/23 01:03:43;;;;;;;16.08;8.05;;;3.80;99.90;;;;;;5073794;28;20028;-80
2022/11/23 01:06:11;;;;;;;14.48;8.75;;;3.90;99.90;;;;;;5074151;28;20024;-80
2022/11/23 01:08:37;;;;;;;11.57;8.23;;;3.90;99.90;;;;;;5074064;28;20051;-80
2022/11/23 01:11:06;;;;;;;14.93;9.05;;;3.80;99.90;;;;;;5073385;28;20150;-80
2022/11/23 01:13:32;;;;;;;12.43;8.95;;;3.80;99.90;;;;;;5073715;28;20037;-80
2022/11/23 01:15:58;;;;;;;15.88;10.63;;;3.40;99.90;;;;;;5073581;28;20044;-80
2022/11/23 01:18:25;;;;;;;18.27;10.18;;;3.50;99.90;;;;;;5060892;28;20025;-79
2022/11/23 01:20:51;;;;;;;16.45;9.10;;;3.40;99.90;;;;;;5053743;28;20409;-80
2022/11/23 01:23:16;;;;;;;11.32;9.10;;;3.50;99.90;;;;;;5053619;28;20031;-80
2022/11/23 01:25:42;;;;;;;12.75;9.57;;;3.50;99.90;;;;;;5053106;28;20040;-79
2022/11/23 01:28:08;;;;;;;13.35;8.57;;;3.50;99.90;;;;;;5053933;28;20122;-80
2022/11/23 01:30:35;;;;;;;11.57;8.63;;;3.50;99.90;;;;;;5053372;28;20116;-80
2022/11/23 01:33:01;;;;;;;13.80;8.50;;;3.50;99.90;;;;;;5062366;28;20106;-80
2022/11/23 01:35:27;;;;;;;12.80;9.10;;;3.60;99.90;;;;;;5073531;28;20075;-80
2022/11/23 01:37:53;;;;;;;13.75;8.68;;;3.50;99.90;;;;;;5073355;28;20523;-80
2022/11/23 01:40:19;;;;;;;13.60;9.30;;;3.50;99.90;;;;;;5072597;28;20032;-80
2022/11/23 01:42:59;;;;;;;15.00;9.50;;;3.50;99.90;;;;;;5073612;28;20107;-80
2022/11/23 01:45:38;;;;;;;13.45;10.30;;;3.40;99.90;;;;;;5073024;28;20480;-80
2022/11/23 01:48:15;;;;;;;14.07;9.15;;;3.40;99.90;;;;;;5073006;28;20036;-80
2022/11/23 01:50:43;;;;;;;14.55;9.00;;;3.40;99.90;;;;;;5072879;28;20510;-80
2022/11/23 01:53:09;;;;;;;13.85;9.05;;;3.40;99.90;;;;;;5073071;28;20021;-80
2022/11/23 01:55:35;;;;;;;14.35;8.68;;;3.90;99.90;;;;;;5072873;28;20147;-80
2022/11/23 01:58:02;;;;;;;12.63;8.98;;;3.30;99.90;;;;;;5072954;28;20027;-80
2022/11/23 02:00:28;;;;;;;14.18;8.23;;;3.30;99.90;;;;;;5073073;28;20545;-80
2022/11/23 02:02:57;;;;;;;12.40;7.97;;;3.40;99.90;;;;;;5072408;28;20024;-80
2022/11/23 02:05:33;;;;;;;12.88;8.20;;;3.50;99.90;;;;;;5073160;28;20040;-80
2022/11/23 02:08:00;;;;;;;10.90;7.97;;;3.50;99.90;;;;;;5072292;28;20542;-80
2022/11/23 02:10:27;;;;;;;12.32;8.20;;;3.40;99.90;;;;;;5072540;28;20162;-80
2022/11/23 02:12:53;;;;;;;13.32;7.80;;;3.40;99.90;;;;;;5072647;28;20009;-80
2022/11/23 02:15:19;;;;;;;12.38;8.00;;;3.30;99.90;;;;;;5073015;28;20484;-80
2022/11/23 02:17:45;;;;;;;13.73;8.27;;;3.20;99.90;;;;;;5064866;28;20112;-80
2022/11/23 02:20:14;;;;;;;17.25;9.70;;;3.30;99.90;;;;;;5052551;28;20028;-80
2022/11/23 02:23:15;;;;;;;14.57;9.50;;;3.10;99.90;;;;;;5052513;28;20067;-79
2022/11/23 02:25:44;;;;;;;14.50;9.48;;;3.30;99.90;;;;;;5045317;28;20048;-79
2022/11/23 02:28:23;;;;;;;14.43;9.05;;;3.40;99.90;;;;;;5052576;28;20032;-80
2022/11/23 02:30:52;;;;;;;14.77;9.02;;;3.50;99.90;;;;;;5052335;28;20032;-80
2022/11/23 02:33:17;;;;;;;14.88;9.20;;;3.40;99.90;;;;;;5063784;28;20088;-80
2022/11/23 02:35:52;;;;;;;10.80;8.55;;;3.40;99.90;;;;;;5072179;28;20082;-80
2022/11/23 02:38:18;;;;;;;14.02;8.95;;;3.40;99.90;;;;;;5071984;28;20024;-80
2022/11/23 02:40:44;;;;;;;14.15;8.57;;;3.40;99.90;;;;;;5072250;28;20063;-79
2022/11/23 02:43:10;;;;;;;13.70;8.50;;;3.30;99.90;;;;;;5072637;28;20306;-80
2022/11/23 02:45:44;;;;;;;13.07;8.52;;;3.40;99.90;;;;;;5072083;28;20066;-80
2022/11/23 02:48:10;;;;;;;15.20;8.60;;;3.40;99.90;;;;;;5072250;28;20113;-80
2022/11/23 02:50:35;;;;;;;11.88;7.78;;;3.30;99.90;;;;;;5072034;28;20017;-79
2022/11/23 02:53:01;;;;;;;11.70;7.32;;;3.30;99.90;;;;;;5071681;28;20036;-80
2022/11/23 02:55:26;;;;;;;13.50;6.90;;;3.30;99.90;;;;;;5072432;28;20098;-80
2022/11/23 02:57:52;;;;;;;12.85;7.32;;;3.40;99.90;;;;;;5071728;28;20473;-80
2022/11/23 03:00:18;;;;;;;11.73;6.78;;;3.90;99.90;;;;;;5071968;28;20127;-80
2022/11/23 03:02:43;;;;;;;11.30;6.68;;;3.50;99.90;;;;;;5072167;28;20159;-80
2022/11/23 03:05:09;;;;;;;9.70;6.68;;;3.50;99.90;;;;;;5072211;28;20046;-80
2022/11/23 03:07:35;;;;;;;11.93;6.65;;;3.50;99.90;;;;;;5072636;28;20052;-80
2022/11/23 03:10:00;;;;;;;12.52;6.72;;;3.80;99.90;;;;;;5072004;28;20078;-80
2022/11/23 03:12:26;;;;;;;10.80;7.20;;;3.40;99.90;;;;;;5071832;28;20473;-80
2022/11/23 03:14:52;;;;;;;13.30;7.13;;;3.40;99.90;;;;;;5071664;28;20032;-80
2022/11/23 03:17:17;;;;;;;12.50;6.90;;;3.40;99.90;;;;;;5068053;28;20025;-80
2022/11/23 03:19:43;;;;;;;13.55;6.72;;;3.40;99.90;;;;;;5051861;28;20481;-80
2022/11/23 03:22:09;;;;;;;13.10;6.72;;;3.40;99.90;;;;;;5051555;28;20029;-80
2022/11/23 03:24:35;;;;;;;13.60;6.78;;;3.40;99.90;;;;;;5051684;28;20028;-80
2022/11/23 03:27:01;;;;;;;11.32;6.38;;;3.40;99.90;;;;;;5051700;28;20033;-80
2022/11/23 03:29:26;;;;;;;9.77;5.75;;;3.30;99.90;;;;;;5052119;28;20036;-80
2022/11/23 03:31:53;;;;;;;11.23;5.75;;;3.30;99.90;;;;;;5051693;28;20056;-80
2022/11/23 03:34:18;;;;;;;11.80;5.97;;;3.40;99.90;;;;;;5031405;28;20056;-80
2022/11/23 03:36:44;;;;;;;10.35;5.63;;;3.40;99.90;;;;;;5031469;28;20414;-80
2022/11/23 03:39:10;;;;;;;10.10;5.97;;;3.40;99.90;;;;;;5032039;28;20053;-80
2022/11/23 03:41:35;;;;;;;10.52;5.72;;;3.40;99.90;;;;;;5031771;28;20440;-80
2022/11/23 03:44:01;;;;;;;9.27;5.18;;;3.40;99.90;;;;;;5031608;28;20483;-79
2022/11/23 03:46:27;;;;;;;10.23;5.78;;;3.40;99.90;;;;;;5031645;28;20033;-80
2022/11/23 03:48:52;;;;;;;9.38;5.30;;;3.40;99.90;;;;;;5031753;28;20060;-80
2022/11/23 03:51:18;;;;;;;11.20;5.75;;;3.50;99.90;;;;;;5031259;28;20025;-80
2022/11/23 03:53:43;;;;;;;9.90;5.35;;;3.50;99.90;;;;;;5031883;28;20045;-80
2022/11/23 03:56:09;;;;;;;10.43;5.13;;;3.60;99.90;;;;;;5031635;28;20559;-80
2022/11/23 03:58:35;;;;;;;9.45;5.07;;;3.60;99.90;;;;;;5031367;28;20033;-79
2022/11/23 04:01:00;;;;;;;8.93;5.30;;;3.60;99.90;;;;;;5031637;28;20030;-80
2022/11/23 04:03:26;;;;;;;10.95;5.30;;;3.60;99.90;;;;;;5031461;28;20060;-80
2022/11/23 04:05:52;;;;;;;11.75;5.20;;;3.50;99.90;;;;;;5031217;28;20025;-80
2022/11/23 04:08:17;;;;;;;11.05;5.78;;;3.60;99.90;;;;;;5031957;28;20492;-80
2022/11/23 04:10:43;;;;;;;10.05;5.50;;;3.50;99.90;;;;;;5033062;28;20033;-80
2022/11/23 04:13:09;;;;;;;8.07;5.47;;;3.50;99.90;;;;;;5035094;28;20108;-80
2022/11/23 04:15:34;;;;;;;9.77;5.50;;;3.40;99.90;;;;;;5034853;28;20120;-80
2022/11/23 04:18:00;;;;;;;9.98;5.70;;;3.50;99.90;;;;;;5043197;28;20438;-80
2022/11/23 04:20:26;;;;;;;7.22;5.05;;;3.50;99.90;;;;;;5054552;28;20036;-80
2022/11/23 04:22:52;;;;;;;12.55;5.13;;;3.50;99.90;;;;;;5054775;28;20033;-79
2022/11/23 04:25:18;;;;;;;7.05;4.55;;;3.40;99.90;;;;;;5054636;28;20033;-80
2022/11/23 04:27:44;;;;;;;8.48;4.43;;;3.50;99.90;;;;;;5054907;28;20017;-79
2022/11/23 04:30:10;;;;;;;7.25;5.15;;;3.80;99.90;;;;;;5054744;28;20061;-80
2022/11/23 04:32:36;;;;;;;10.85;4.30;;;3.50;99.90;;;;;;5060114;28;20409;-79
2022/11/23 04:35:02;;;;;;;8.45;4.47;;;3.60;99.90;;;;;;5074463;28;20036;-79
2022/11/23 04:37:27;;;;;;;9.23;4.25;;;3.60;99.90;;;;;;5074591;28;20028;-80
2022/11/23 04:39:53;;;;;;;7.78;4.00;;;3.70;99.90;;;;;;5074457;28;20067;-79
2022/11/23 04:42:18;;;;;;;5.63;3.75;;;4.10;99.90;;;;;;5074699;28;20036;-80
2022/11/23 04:44:45;;;;;;;7.60;4.03;;;3.80;99.90;;;;;;5074322;28;20032;-80
2022/11/23 04:47:11;;;;;;;6.30;3.83;;;3.90;99.90;;;;;;5073674;28;20031;-80
2022/11/23 04:49:36;;;;;;;9.43;4.30;;;3.90;99.90;;;;;;5074765;28;20021;-80
2022/11/23 04:52:02;;;;;;;6.97;4.32;;;3.90;99.90;;;;;;5074282;28;20033;-80
2022/11/23 04:54:28;;;;;;;6.15;3.72;;;3.90;99.90;;;;;;5074434;28;20108;-80
2022/11/23 04:56:55;;;;;;;6.20;4.03;;;4.00;99.90;;;;;;5074741;28;20032;-80
2022/11/23 04:59:21;;;;;;;9.20;4.43;;;3.90;99.90;;;;;;5074088;28;20456;-80
2022/11/23 05:01:48;;;;;;;10.40;4.78;;;3.90;99.90;;;;;;5073740;28;20496;-80
2022/11/23 05:04:13;;;;;;;9.77;4.22;;;3.90;99.90;;;;;;5073180;28;20020;-80
2022/11/23 05:06:39;;;;;;;8.52;4.55;;;3.90;99.90;;;;;;5073977;28;20059;-80
2022/11/23 05:09:04;;;;;;;11.05;4.88;;;4.00;99.90;;;;;;5074346;28;20025;-80
2022/11/23 05:11:30;;;;;;;10.65;4.63;;;4.00;99.90;;;;;;5074247;28;20431;-80
2022/11/23 05:13:56;;;;;;;7.05;4.30;;;4.10;99.90;;;;;;5073537;28;20051;-79
2022/11/23 05:16:21;;;;;;;9.10;4.43;;;4.20;99.90;;;;;;5073258;28;20067;-79
2022/11/23 05:18:47;;;;;;;7.38;3.90;;;4.30;99.90;;;;;;5057650;28;20103;-80
2022/11/23 05:21:12;;;;;;;7.82;3.80;;;4.20;99.90;;;;;;5053014;28;20025;-80
2022/11/23 05:23:38;;;;;;;5.63;4.00;;;4.20;99.90;;;;;;5053998;28;20036;-80
2022/11/23 05:26:04;;;;;;;7.70;4.15;;;4.30;99.90;;;;;;5053370;28;20103;-80
2022/11/23 05:28:29;;;;;;;5.78;3.75;;;4.20;99.90;;;;;;5053686;28;20477;-80
2022/11/23 05:30:55;;;;;;;8.30;4.18;;;4.20;99.90;;;;;;5053187;28;20025;-80
2022/11/23 05:33:20;;;;;;;7.97;4.40;;;4.20;99.90;;;;;;5065563;28;20068;-80
2022/11/23 05:35:46;;;;;;;5.10;4.22;;;4.20;99.90;;;;;;5073507;28;20108;-80
2022/11/23 05:38:12;;;;;;;11.57;4.88;;;4.10;99.90;;;;;;5073681;28;20021;-80
2022/11/23 05:40:37;;;;;;;9.68;4.68;;;4.00;99.90;;;;;;5073044;28;20028;-80
2022/11/23 05:43:03;;;;;;;8.60;4.60;;;4.10;99.90;;;;;;5073104;28;20062;-80
2022/11/23 05:45:28;;;;;;;7.45;4.28;;;4.20;99.90;;;;;;5072738;28;20119;-80
2022/11/23 05:47:57;;;;;;;8.35;5.30;;;4.20;99.90;;;;;;5073334;28;20020;-80
2022/11/23 05:50:27;;;;;;;8.77;4.75;;;4.30;99.90;;;;;;5071648;28;20029;-80
2022/11/23 05:52:56;;;;;;;9.90;5.00;;;4.50;99.90;;;;;;5073067;28;20033;-79
2022/11/23 05:55:21;;;;;;;8.25;4.55;;;4.30;99.90;;;;;;5072808;28;20028;-80
2022/11/23 05:57:47;;;;;;;7.95;4.75;;;4.30;99.90;;;;;;5072858;28;20017;-80
2022/11/23 06:00:13;;;;;;;12.63;5.47;;;4.30;99.90;;;;;;5072515;28;20024;-80
2022/11/23 06:02:39;;;;;;;9.35;5.30;;;4.30;99.90;;;;;;5072855;28;20052;-80
2022/11/23 06:05:05;;;;;;;10.52;5.75;;;4.40;99.90;;;;;;5072611;28;20055;-80
2022/11/23 06:07:34;;;;;;;9.10;5.35;;;4.30;99.90;;;;;;5072720;28;20020;-80
2022/11/23 06:10:00;;;;;;;10.38;5.70;;;4.30;99.90;;;;;;5072639;28;20039;-80
2022/11/23 06:12:28;;;;;;;11.00;6.25;;;4.30;99.90;;;;;;5072551;28;20114;-80
2022/11/23 06:14:54;;;;;;;9.30;5.38;;;4.20;99.90;;;;;;5072059;28;20028;-80
2022/11/23 06:17:19;;;;;;;9.80;6.68;;;4.20;99.90;;;;;;5068442;28;20032;-80
2022/11/23 06:19:45;;;;;;;10.55;5.95;;;4.30;99.90;;;;;;5052522;28;20029;-80
2022/11/23 06:22:11;;;;;;;9.63;5.55;;;4.30;99.90;;;;;;5053251;28;20029;-80
2022/11/23 06:24:36;;;;;;;9.65;5.90;;;4.30;99.90;;;;;;5052400;28;20028;-80
2022/11/23 06:27:02;;;;;;;13.63;6.18;;;4.50;99.90;;;;;;5052341;28;20025;-80
2022/11/23 06:29:28;;;;;;;11.23;5.95;;;4.30;99.90;;;;;;5052480;28;20036;-80
2022/11/23 06:31:53;;;;;;;8.93;6.07;;;4.30;99.90;;;;;;5052320;28;20029;-80
2022/11/23 06:34:19;;;;;;;10.13;6.55;;;4.40;99.90;;;;;;5069924;28;20048;-80
2022/11/23 06:36:45;;;;;;;13.30;6.50;;;4.50;99.90;;;;;;5072195;28;20179;-80
2022/11/23 06:39:11;;;;;;;12.85;7.00;;;4.40;99.90;;;;;;5072775;28;20129;-80
2022/11/23 06:41:37;;;;;;;11.10;6.53;;;4.50;99.90;;;;;;5072230;28;20029;-80
2022/11/23 06:44:03;;;;;;;10.43;6.50;;;4.50;99.90;;;;;;5071718;28;20472;-80
2022/11/23 06:46:29;;;;;;;12.88;7.40;;;4.50;99.90;;;;;;5072596;28;20027;-80
2022/11/23 06:48:55;;;;;;;11.85;7.18;;;4.40;99.90;;;;;;5070730;28;20041;-80
2022/11/23 06:51:20;;;;;;;13.75;7.63;;;4.50;99.90;;;;;;5072327;28;20492;-80
2022/11/23 06:53:46;;;;;;;13.30;8.10;;;4.60;99.90;;;;;;5072065;28;20032;-80
2022/11/23 06:56:11;;;;;;;13.13;8.23;;;4.50;99.90;;;;;;5071861;28;20119;-80
2022/11/23 06:58:37;;;;;;;14.70;8.45;;;4.90;99.90;;;;;;5071755;28;20036;-80
2022/11/23 07:01:07;;;;;;;15.13;8.40;;;4.60;99.90;;;;;;5071929;28;20028;-80
2022/11/23 07:03:33;;;;;;;15.30;9.93;;;4.70;99.90;;;;;;5067160;28;20029;-80
2022/11/23 07:05:59;;;;;;;14.20;9.32;;;4.70;99.90;;;;;;5051389;28;20035;-80
2022/11/23 07:08:24;;;;;;;12.32;8.63;;;4.90;99.90;;;;;;5051835;28;20025;-80
2022/11/23 07:10:50;;;;;;;12.90;8.60;;;4.80;99.90;;;;;;5050963;28;20111;-80
2022/11/23 07:13:15;;;;;;;13.65;9.00;;;4.80;99.90;;;;;;5051296;28;20021;-80
2022/11/23 07:15:41;;;;;;;12.15;8.82;;;4.90;99.90;;;;;;5051757;28;20041;-80
2022/11/23 07:18:10;;;;;;;15.35;8.50;;;5.00;99.90;;;;;;5051719;28;20493;-80
2022/11/23 07:20:36;;;;;;;12.40;8.48;;;5.00;99.90;;;;;;5051620;28;20477;-80
2022/11/23 07:23:06;;;;;;;11.45;8.23;;;5.00;99.90;;;;;;5051782;28;20025;-80
2022/11/23 07:25:34;;;;;;;12.45;7.38;;;5.00;99.90;;;;;;5052138;28;20033;-80
2022/11/23 07:28:02;;;;;;;13.57;7.32;;;5.10;99.90;;;;;;5051271;28;20025;-80
2022/11/23 07:30:29;;;;;;;13.05;7.85;;;5.20;99.90;;;;;;5051505;28;20083;-80
2022/11/23 07:33:10;;;;;;;12.50;7.82;;;5.20;99.90;;;;;;5059931;28;20058;-81
2022/11/23 07:35:37;;;;;;;13.00;7.35;;;5.50;99.90;;;;;;5071952;28;20086;-80
2022/11/23 07:38:05;;;;;;;12.07;7.97;;;5.30;99.90;;;;;;5071619;28;20035;-79
2022/11/23 07:40:30;;;;;;;11.68;7.40;;;5.40;99.90;;;;;;5071475;28;20048;-80
2022/11/23 07:43:00;;;;;;;14.02;7.18;;;5.40;99.90;;;;;;5071116;28;20075;-80
2022/11/23 07:45:27;;;;;;;11.30;8.15;;;5.40;99.90;;;;;;5074861;28;20029;-80
2022/11/23 07:48:07;;;;;;;13.68;7.93;;;5.50;99.90;;;;;;5075394;28;20085;-80
2022/11/23 07:50:35;;;;;;;12.25;7.72;;;5.40;99.90;;;;;;5075132;28;20020;-80
2022/11/23 07:53:02;;;;;;;15.88;8.73;;;5.60;99.90;;;;;;5075155;28;20031;-80
2022/11/23 07:55:27;;;;;;;11.95;8.38;;;5.70;99.90;;;;;;5075352;28;20115;-80
2022/11/23 07:57:54;;;;;;;11.65;8.57;;;5.70;99.90;;;;;;5075190;28;20108;-80
2022/11/23 08:00:21;;;;;;;19.38;9.43;;;6.20;99.90;;;;;;5075155;28;20032;-80
2022/11/23 08:02:46;;;;;;;14.90;8.38;;;6.00;99.90;;;;;;5075968;28;20027;-80
2022/11/23 08:05:12;;;;;;;11.88;8.32;;;5.90;99.90;;;;;;5074945;28;20366;-80
2022/11/23 08:07:38;;;;;;;12.57;8.05;;;6.00;99.90;;;;;;5074771;28;20029;-79
2022/11/23 08:10:04;;;;;;;11.15;7.47;;;6.10;99.90;;;;;;5074971;28;20028;-80
2022/11/23 08:12:30;;;;;;;10.77;7.88;;;6.20;99.90;;;;;;5074726;28;20110;-80
2022/11/23 08:14:56;;;;;;;13.13;7.85;;;6.30;99.90;;;;;;5074983;28;20468;-80
2022/11/23 08:17:21;;;;;;;10.45;7.57;;;6.30;99.90;;;;;;5070638;28;20412;-80
2022/11/23 08:19:47;;;;;;;15.30;7.55;;;6.70;99.90;;;;;;5055878;28;20485;-80
2022/11/23 08:22:13;;;;;;;9.63;7.43;;;6.50;99.90;;;;;;5054910;28;20036;-80
2022/11/23 08:24:38;;;;;;;8.85;7.05;;;6.60;99.90;;;;;;5054307;28;20033;-80
2022/11/23 08:27:04;;;;;;;14.00;7.03;;;6.70;99.90;;;;;;5055091;28;20036;-80
2022/11/23 08:29:30;;;;;;;10.02;6.85;;;6.80;99.90;;;;;;5054725;28;20071;-80
2022/11/23 08:31:55;;;;;;;16.23;7.38;;;7.10;99.90;;;;;;5054740;28;20518;-80
2022/11/23 08:34:21;;;;;;;9.07;6.63;;;7.40;99.90;;;;;;5074108;28;20052;-80
2022/11/23 08:36:49;;;;;;;12.38;7.32;;;7.70;99.90;;;;;;5074403;28;20098;-80
2022/11/23 08:39:16;;;;;;;11.20;6.45;;;8.10;99.90;;;;;;5074078;28;20100;-80
2022/11/23 08:41:41;;;;;;;9.65;6.65;;;8.50;99.90;;;;;;5074813;28;20039;-80
2022/11/23 08:44:09;;;;;;;11.13;7.53;;;8.20;99.90;;;;;;5074461;28;20020;-80
2022/11/23 08:46:35;;;;;;;10.77;7.03;;;7.80;99.90;;;;;;5074240;28;20048;-80
2022/11/23 08:49:01;;;;;;;9.77;6.60;;;7.70;99.90;;;;;;5074240;28;20021;-80
2022/11/23 08:51:27;;;;;;;12.30;7.28;;;7.70;99.90;;;;;;5074148;28;20033;-80
2022/11/23 08:53:52;;;;;;;12.90;7.13;;;7.60;99.90;;;;;;5073692;28;20029;-80
2022/11/23 08:56:18;;;;;;;10.25;7.25;;;8.00;99.90;;;;;;5073651;28;20029;-80
2022/11/23 08:58:44;;;;;;;10.50;7.28;;;7.80;99.90;;;;;;5074146;28;20175;-80
2022/11/23 09:01:11;;;;;;;13.50;7.30;;;7.90;99.90;;;;;;5074041;28;20029;-80
2022/11/23 09:03:37;;;;;;;10.60;7.60;;;8.10;99.90;;;;;;5073898;28;20027;-80
2022/11/23 09:06:04;;;;;;;12.18;7.47;;;8.30;99.90;;;;;;5073817;28;20040;-80
2022/11/23 09:08:29;;;;;;;13.18;8.05;;;8.40;99.90;;;;;;5073999;28;20410;-80
2022/11/23 09:11:03;;;;;;;13.32;8.13;;;8.50;99.90;;;;;;5073813;28;20025;-80
2022/11/23 09:13:29;;;;;;;10.70;7.30;;;8.40;99.90;;;;;;5073846;28;20024;-80
2022/11/23 09:15:58;;;;;;;12.55;7.68;;;8.10;99.90;;;;;;5073443;28;20407;-80
2022/11/23 09:18:25;;;;;;;11.30;7.25;;;8.10;99.90;;;;;;5060645;28;20029;-80
2022/11/23 09:20:50;;;;;;;10.55;6.78;;;8.20;99.90;;;;;;5053733;28;20035;-80
2022/11/23 09:23:16;;;;;;;9.18;7.00;;;8.30;99.90;;;;;;5052908;28;20021;-80
2022/11/23 09:25:42;;;;;;;8.90;6.13;;;8.60;99.90;;;;;;5053522;28;20365;-80
2022/11/23 09:28:08;;;;;;;10.13;6.95;;;8.70;99.90;;;;;;5053668;28;20029;-80
2022/11/23 09:30:33;;;;;;;10.63;6.93;;;8.40;99.90;;;;;;5053323;28;20025;-80
2022/11/23 09:32:59;;;;;;;10.98;6.40;;;8.30;99.90;;;;;;5062149;28;20052;-80
2022/11/23 09:35:25;;;;;;;7.70;5.53;;;8.30;99.90;;;;;;5073646;28;20078;-80
2022/11/23 09:37:56;;;;;;;8.10;5.15;;;8.50;99.90;;;;;;5073333;28;20473;-80
2022/11/23 09:40:22;;;;;;;6.82;5.45;;;8.30;99.90;;;;;;5073096;28;20085;-81
2022/11/23 09:43:05;;;;;;;11.57;7.40;;;8.40;99.90;;;;;;5073214;28;20028;-80
2022/11/23 09:45:50;;;;;;;8.80;5.88;;;8.20;99.90;;;;;;5073050;28;20042;-80
2022/11/23 09:48:34;;;;;;;7.88;6.38;;;8.20;99.90;;;;;;5073169;28;20020;-81
2022/11/23 09:51:04;;;;;;;7.75;5.35;;;8.30;99.90;;;;;;5072955;28;20103;-80
2022/11/23 09:53:54;;;;;;;8.95;5.07;;;8.40;99.90;;;;;;5072576;28;20320;-81
2022/11/23 09:56:31;;;;;;;8.77;5.53;;;8.30;99.90;;;;;;5072813;28;20040;-81
2022/11/23 09:59:01;;;;;;;9.05;5.10;;;8.40;99.90;;;;;;5073005;28;20021;-80
2022/11/23 10:01:26;;;;;;;8.25;4.82;;;8.50;99.90;;;;;;5072414;28;20503;-80
2022/11/23 10:03:52;;;;;;;6.97;5.18;;;9.00;99.90;;;;;;5073111;28;20024;-81
2022/11/23 10:06:30;;;;;;;10.00;7.18;;;8.70;99.90;;;;;;5072371;28;20073;-81
2022/11/23 10:09:23;;;;;;;8.20;4.22;;;8.80;99.90;;;;;;5072703;28;20047;-80
2022/11/23 10:12:04;;;;;;;6.10;3.38;;;8.90;99.90;;;;;;5072699;28;20081;-80
2022/11/23 10:14:38;;;;;;;4.68;2.55;;;9.10;99.90;;;;;;5072717;28;20020;-80
2022/11/23 10:17:34;;;;;;;7.25;4.00;;;9.30;99.90;;;;;;5071016;28;20112;-81
2022/11/23 10:20:40;;;;;;;4.75;3.15;;;9.10;99.90;;;;;;5052354;28;20028;-80
2022/11/23 10:23:41;;;;;;;4.88;3.10;;;9.00;99.90;;;;;;5043287;28;20485;-80
2022/11/23 10:26:16;;;;;;;3.97;2.70;;;8.90;99.90;;;;;;5052394;28;20025;-80
2022/11/23 10:28:44;;;;;;;4.72;2.78;;;8.90;99.90;;;;;;5052242;28;20033;-80
2022/11/23 10:31:14;;;;;;;4.00;2.28;;;9.20;99.90;;;;;;5052226;28;20366;-80
2022/11/23 10:33:54;;;;;;;3.20;2.20;;;9.30;99.90;;;;;;5066498;28;20109;-80
2022/11/23 10:36:21;;;;;;;3.80;2.35;;;9.30;99.90;;;;;;5071810;28;20573;-80
2022/11/23 10:38:52;;;;;;;2.95;2.10;;;9.10;99.90;;;;;;5072328;28;20044;-80
2022/11/23 10:41:18;;;;;;;4.30;1.90;;;9.20;99.90;;;;;;5072818;28;20484;-80
2022/11/23 10:44:08;;;;;;;4.80;2.40;;;9.30;99.90;;;;;;5072043;28;20028;-80
2022/11/23 10:46:33;;;;;;;4.65;2.97;;;9.60;99.90;;;;;;5072169;28;20031;-80
2022/11/23 10:49:17;;;;;;;5.10;3.35;;;9.80;99.90;;;;;;5072119;28;20024;-80
2022/11/23 10:51:51;;;;;;;6.90;3.45;;;10.00;99.90;;;;;;5071745;28;20103;-80
2022/11/23 10:54:28;;;;;;;5.82;3.20;;;10.30;99.90;;;;;;5073060;28;20028;-80
2022/11/23 10:56:55;;;;;;;6.35;2.25;;;10.80;99.90;;;;;;5072411;28;20036;-80
2022/11/23 10:59:33;;;;;;;4.15;2.72;;;11.00;99.90;;;;;;5072068;28;20387;-80
2022/11/23 11:02:15;;;;;;;3.85;2.50;;;11.00;99.90;;;;;;5072029;28;20555;-81
2022/11/23 11:04:41;;;;;;;6.72;2.25;;;11.30;99.90;;;;;;5071588;28;20029;-80
2022/11/23 11:07:28;;;;;;;3.53;2.22;;;11.40;99.90;;;;;;5071950;28;20111;-81
2022/11/23 11:10:02;;;;;;;3.17;1.90;;;11.30;99.90;;;;;;5072314;28;20169;-80
2022/11/23 11:12:31;;;;;;;3.25;2.10;;;11.20;99.90;;;;;;5072726;28;20027;-79
2022/11/23 11:15:08;;;;;;;3.10;1.95;;;11.20;99.90;;;;;;5071812;28;20123;-80
2022/11/23 11:17:34;;;;;;;3.63;2.20;;;10.70;99.90;;;;;;5066253;28;20014;-80
2022/11/23 11:20:22;;;;;;;3.50;2.15;;;10.70;99.90;;;;;;5053882;28;20041;-80
2022/11/23 11:22:48;;;;;;;3.25;1.98;;;10.90;99.90;;;;;;5049115;28;20040;-80
2022/11/23 11:25:29;;;;;;;3.10;2.30;;;11.50;99.90;;;;;;5054565;28;20434;-80
2022/11/23 11:27:55;;;;;;;3.90;2.38;;;11.80;99.90;;;;;;5055571;28;20032;-80
2022/11/23 11:30:33;;;;;;;4.43;2.60;;;12.70;99.90;;;;;;5056022;28;20557;-80
2022/11/23 11:33:13;;;;;;;4.30;1.98;;;14.00;99.90;;;;;;5064042;28;20047;-80
2022/11/23 11:35:42;;;;;;;2.60;1.58;;;17.60;99.90;;;;;;5075507;28;20047;-81
2022/11/23 11:38:11;;;;;;;2.05;1.55;;;18.90;99.90;;;;;;5075669;28;20035;-80
2022/11/23 11:40:49;;;;;;;3.83;1.90;;;16.80;99.90;;;;;;5075508;28;20485;-80
2022/11/23 11:43:24;;;;;;;2.90;1.77;;;14.20;99.90;;;;;;5074097;28;20392;-80
2022/11/23 11:45:54;;;;;;;4.60;1.48;;;13.10;99.90;;;;;;5075636;28;20070;-80
2022/11/23 11:48:48;;;;;;;3.60;1.40;;;12.90;99.90;;;;;;5075069;28;20012;-80
2022/11/23 11:51:29;;;;;;;2.05;1.40;;;12.90;99.90;;;;;;5073104;28;20127;-80
2022/11/23 11:54:00;;;;;;;2.38;1.40;;;12.80;99.90;;;;;;5075658;28;20116;-80
2022/11/23 11:56:40;;;;;;;2.72;1.30;;;12.70;99.90;;;;;;5075214;28;20043;-80
2022/11/23 11:59:46;;;;;;;4.90;1.95;;;12.40;99.90;;;;;;5075386;28;20106;-80
2022/11/23 12:02:25;;;;;;;4.22;2.72;;;11.70;99.90;;;;;;5074570;28;20043;-80
2022/11/23 12:05:10;;;;;;;4.57;2.35;;;11.40;99.90;;;;;;5074907;28;20039;-80
2022/11/23 12:07:37;;;;;;;1.77;1.42;;;11.30;99.90;;;;;;5075218;28;20490;-80
2022/11/23 12:10:33;;;;;;;2.20;1.13;;;11.20;99.90;;;;;;5075228;28;20032;-80
2022/11/23 12:12:59;;;;;;;3.83;1.50;;;11.00;99.90;;;;;;5074857;28;20020;-80
2022/11/23 12:15:33;;;;;;;1.92;1.05;;;11.20;99.90;;;;;;5075318;28;20036;-80
2022/11/23 12:18:17;;;;;;;2.60;1.33;;;10.90;99.90;;;;;;5065341;28;20021;-80
2022/11/23 12:21:11;;;;;;;2.13;1.50;;;10.80;99.90;;;;;;5054929;28;20151;-80
2022/11/23 12:23:53;;;;;;;2.47;1.23;;;10.80;99.90;;;;;;5054710;28;20039;-80
2022/11/23 12:26:31;;;;;;;1.90;1.15;;;10.90;99.90;;;;;;5054507;28;20560;-80
2022/11/23 12:29:04;;;;;;;2.53;1.08;;;10.80;99.90;;;;;;5055061;28;20029;-80
2022/11/23 12:31:56;;;;;;;6.78;1.70;;;10.60;99.90;;;;;;5053147;28;20033;-80
2022/11/23 12:35:00;;;;;;;2.50;1.45;;;10.60;99.90;;;;;;5034338;28;20053;-80
2022/11/23 12:38:10;;;;;;;3.72;1.42;;;10.70;99.90;;;;;;5032645;28;20048;-80
2022/11/23 12:40:50;;;;;;;4.50;1.50;;;10.50;99.90;;;;;;5034320;28;20033;-80
2022/11/23 12:43:27;;;;;;;2.90;1.77;;;10.50;99.90;;;;;;5034586;28;20148;-80
2022/11/23 12:46:23;;;;;;;4.20;1.73;;;10.60;99.90;;;;;;5034148;28;20108;-81
2022/11/23 12:48:58;;;;;;;2.13;1.23;;;10.60;99.90;;;;;;5035191;28;20362;-81
2022/11/23 12:51:33;;;;;;;2.63;1.48;;;10.50;99.90;;;;;;5034372;28;20036;-80
2022/11/23 12:54:24;;;;;;;4.97;1.58;;;10.60;99.90;;;;;;5034458;28;20444;-81
2022/11/23 12:57:14;;;;;;;3.97;1.40;;;10.40;99.90;;;;;;5034281;28;20092;-80
2022/11/23 12:59:49;;;;;;;2.17;1.42;;;10.40;99.90;;;;;;5034390;28;20017;-80
2022/11/23 13:02:26;;;;;;;3.00;1.40;;;10.60;99.90;;;;;;5033941;28;20025;-80